createdAt,value
2023-08-15T00:01:15.028Z,48.93
2023-08-15T00:04:17.315Z,48.57
2023-08-15T00:07:20.605Z,48.65
2023-08-15T00:10:24.396Z,48.42
2023-08-15T00:13:26.959Z,48.56
2023-08-15T00:16:29.177Z,48.45
2023-08-15T00:19:31.373Z,48.46
2023-08-15T00:22:33.559Z,48.77
2023-08-15T00:25:35.801Z,48.60
2023-08-15T00:28:37.949Z,48.70
2023-08-15T00:31:40.780Z,48.86
2023-08-15T00:34:43.034Z,48.36
2023-08-15T00:37:45.276Z,48.15
2023-08-15T00:40:47.495Z,48.62
2023-08-15T00:43:49.724Z,48.75
2023-08-15T00:46:51.989Z,48.53
2023-08-15T00:49:54.400Z,48.75
2023-08-15T00:52:56.667Z,48.62
2023-08-15T00:56:00.584Z,48.88
2023-08-15T00:59:03.315Z,48.76
2023-08-15T01:02:05.881Z,48.86
2023-08-15T01:05:08.825Z,49.26
2023-08-15T01:08:11.094Z,49.04
2023-08-15T01:11:13.876Z,49.46
2023-08-15T01:14:18.398Z,49.18
2023-08-15T01:17:30.047Z,49.66
2023-08-15T01:20:35.099Z,49.57
2023-08-15T01:23:40.287Z,49.32
2023-08-15T01:26:42.509Z,49.19
2023-08-15T01:29:44.740Z,49.30
2023-08-15T01:33:03.802Z,49.50
2023-08-15T01:36:21.156Z,49.46
2023-08-15T01:39:28.292Z,49.22
2023-08-15T01:42:31.194Z,49.42
2023-08-15T01:45:34.119Z,49.11
2023-08-15T01:48:41.460Z,49.64
2023-08-15T01:51:43.771Z,49.58
2023-08-15T01:54:46.005Z,49.76
2023-08-15T01:57:48.149Z,50.04
2023-08-15T02:00:50.917Z,50.14
2023-08-15T02:03:53.164Z,50.00
2023-08-15T02:06:55.398Z,49.99
2023-08-15T02:09:57.612Z,49.81
2023-08-15T02:12:59.816Z,50.07
2023-08-15T02:16:02.513Z,50.14
2023-08-15T02:19:04.765Z,49.74
2023-08-15T02:22:07.011Z,49.85
2023-08-15T02:25:09.401Z,49.66
2023-08-15T02:28:11.596Z,49.94
2023-08-15T02:31:13.923Z,49.70
2023-08-15T02:34:19.543Z,50.16
2023-08-15T02:37:22.083Z,49.96
2023-08-15T02:40:28.224Z,50.08
2023-08-15T02:43:30.409Z,50.31
2023-08-15T02:46:35.244Z,50.04
2023-08-15T02:49:37.561Z,50.43
2023-08-15T02:52:39.786Z,50.51
2023-08-15T02:55:42.015Z,50.38
2023-08-15T02:58:44.258Z,50.23
2023-08-15T03:01:48.166Z,50.39
2023-08-15T03:04:50.545Z,50.25
2023-08-15T03:07:52.793Z,50.09
2023-08-15T03:10:55.032Z,49.96
2023-08-15T03:13:59.327Z,50.86
2023-08-15T03:17:03.452Z,51.03
2023-08-15T03:20:07.276Z,50.87
2023-08-15T03:23:10.012Z,51.39
2023-08-15T03:26:13.231Z,51.28
2023-08-15T03:29:15.988Z,51.40
2023-08-15T03:32:18.209Z,50.99
2023-08-15T03:35:22.723Z,51.16
2023-08-15T03:38:25.452Z,50.97
2023-08-15T03:41:28.162Z,50.64
2023-08-15T03:44:30.346Z,51.02
2023-08-15T03:47:32.574Z,50.73
2023-08-15T03:50:36.171Z,51.30
2023-08-15T03:53:38.442Z,50.93
2023-08-15T03:56:40.795Z,51.23
2023-08-15T03:59:43.020Z,50.74
2023-08-15T04:02:45.901Z,50.49
2023-08-15T04:05:48.358Z,49.77
2023-08-15T04:08:50.596Z,49.66
2023-08-15T04:11:52.889Z,49.78
2023-08-15T04:14:55.152Z,50.03
2023-08-15T04:17:57.477Z,49.55
2023-08-15T04:21:01.410Z,48.42
2023-08-15T04:24:04.060Z,47.78
2023-08-15T04:27:07.708Z,47.58
2023-08-15T04:30:10.552Z,47.01
2023-08-15T04:33:12.763Z,46.50
2023-08-15T04:36:15.961Z,46.90
2023-08-15T04:39:22.610Z,47.56
2023-08-15T04:42:24.996Z,47.12
2023-08-15T04:45:27.737Z,46.78
2023-08-15T04:48:29.940Z,46.82
2023-08-15T04:51:32.146Z,46.50
2023-08-15T04:54:34.397Z,46.36
2023-08-15T04:57:36.597Z,46.73
2023-08-15T05:00:38.821Z,47.43
2023-08-15T05:03:41.589Z,47.46
2023-08-15T05:06:43.749Z,47.65
2023-08-15T05:09:46.037Z,47.63
2023-08-15T05:12:48.217Z,47.43
2023-08-15T05:15:50.505Z,47.83
2023-08-15T05:18:52.780Z,48.02
2023-08-15T05:21:57.004Z,47.49
2023-08-15T05:25:00.579Z,47.78
2023-08-15T05:28:05.541Z,47.96
2023-08-15T05:31:07.783Z,47.82
2023-08-15T05:34:11.363Z,47.89
2023-08-15T05:37:13.834Z,48.17
2023-08-15T05:40:16.581Z,48.09
2023-08-15T05:43:18.797Z,48.12
2023-08-15T05:46:20.983Z,47.97
2023-08-15T05:49:23.170Z,47.69
2023-08-15T05:52:27.109Z,47.49
2023-08-15T05:55:29.278Z,47.96
2023-08-15T05:58:31.564Z,47.60
2023-08-15T06:01:33.867Z,47.73
2023-08-15T06:04:36.191Z,47.70
2023-08-15T06:07:38.544Z,46.98
2023-08-15T06:10:40.780Z,46.83
2023-08-15T06:13:42.954Z,47.18
2023-08-15T06:16:45.166Z,46.82
2023-08-15T06:19:47.579Z,47.10
2023-08-15T06:22:49.829Z,47.76
2023-08-15T06:25:52.074Z,47.81
2023-08-15T06:28:54.224Z,47.23
2023-08-15T06:31:59.107Z,47.06
2023-08-15T06:35:02.240Z,47.13
2023-08-15T06:38:04.651Z,46.74
2023-08-15T06:41:07.945Z,46.56
2023-08-15T06:44:10.229Z,46.77
2023-08-15T06:47:12.581Z,46.78
2023-08-15T06:50:14.724Z,46.77
2023-08-15T06:53:16.981Z,46.96
2023-08-15T06:56:19.344Z,46.66
2023-08-15T06:59:24.627Z,45.18
2023-08-15T07:02:26.947Z,45.54
2023-08-15T07:05:29.200Z,45.62
2023-08-15T07:08:32.215Z,44.78
2023-08-15T07:11:37.171Z,44.52
2023-08-15T07:14:39.374Z,43.98
2023-08-15T07:17:41.620Z,44.05
2023-08-15T07:20:45.740Z,44.08
2023-08-15T07:23:47.948Z,44.22
2023-08-15T07:26:50.150Z,43.07
2023-08-15T07:29:52.361Z,42.41
2023-08-15T07:32:56.246Z,42.66
2023-08-15T07:35:58.578Z,42.87
2023-08-15T07:39:00.792Z,42.06
2023-08-15T07:42:03.175Z,41.93
2023-08-15T07:45:06.173Z,42.21
2023-08-15T07:48:08.381Z,41.96
2023-08-15T07:51:11.859Z,41.74
2023-08-15T07:54:14.627Z,41.70
2023-08-15T07:57:16.843Z,41.97
2023-08-15T08:00:19.247Z,42.12
2023-08-15T08:03:21.537Z,42.60
2023-08-15T08:06:39.088Z,42.36
2023-08-15T08:09:42.408Z,41.96
2023-08-15T08:12:46.855Z,41.76
2023-08-15T08:15:49.420Z,41.51
2023-08-15T08:18:51.660Z,41.41
2023-08-15T08:21:54.561Z,42.41
2023-08-15T08:24:56.734Z,41.66
2023-08-15T08:27:58.905Z,40.76
2023-08-15T08:31:01.086Z,40.89
2023-08-15T08:34:03.288Z,41.39
2023-08-15T08:37:05.447Z,41.41
2023-08-15T08:40:09.303Z,41.29
2023-08-15T08:43:12.294Z,40.76
2023-08-15T08:46:15.025Z,40.44
2023-08-15T08:49:18.038Z,40.47
2023-08-15T08:52:20.240Z,40.50
2023-08-15T08:55:23.533Z,40.63
2023-08-15T08:58:27.381Z,40.16
2023-08-15T09:01:31.047Z,40.53
2023-08-15T09:04:33.235Z,40.18
2023-08-15T09:07:36.397Z,40.56
2023-08-15T09:10:38.707Z,40.09
2023-08-15T09:13:53.834Z,40.00
2023-08-15T09:16:56.180Z,39.68
2023-08-15T09:20:08.429Z,39.56
2023-08-15T09:23:10.623Z,40.38
2023-08-15T09:26:14.134Z,39.23
2023-08-15T09:29:17.269Z,39.40
2023-08-15T09:32:19.522Z,39.00
2023-08-15T09:35:21.697Z,39.03
2023-08-15T09:38:23.834Z,38.74
2023-08-15T09:41:27.955Z,38.75
2023-08-15T09:44:31.879Z,39.01
2023-08-15T09:47:35.693Z,39.22
2023-08-15T09:50:39.246Z,38.84
2023-08-15T09:53:43.674Z,38.80
2023-08-15T09:56:47.673Z,38.35
2023-08-15T09:59:49.861Z,38.38
2023-08-15T10:03:12.300Z,38.66
2023-08-15T10:06:14.870Z,38.86
2023-08-15T10:09:17.746Z,38.59
2023-08-15T10:12:20.477Z,38.80
2023-08-15T10:15:23.405Z,38.44
2023-08-15T10:18:26.329Z,38.75
2023-08-15T10:21:50.090Z,38.81
2023-08-15T10:24:52.325Z,38.21
2023-08-15T10:27:56.707Z,38.24
2023-08-15T10:30:59.150Z,37.77
2023-08-15T10:34:03.564Z,38.18
2023-08-15T10:37:27.997Z,38.20
2023-08-15T10:40:41.706Z,37.78
2023-08-15T10:43:52.364Z,37.78
2023-08-15T10:46:57.411Z,37.66
2023-08-15T10:49:59.650Z,37.38
2023-08-15T10:53:08.172Z,37.58
2023-08-15T10:56:10.658Z,37.42
2023-08-15T10:59:15.326Z,37.76
2023-08-15T11:02:17.665Z,37.45
2023-08-15T11:05:20.489Z,37.31
2023-08-15T11:08:22.733Z,37.22
2023-08-15T11:11:25.657Z,37.09
2023-08-15T11:14:27.824Z,37.02
2023-08-15T11:17:30.045Z,36.70
2023-08-15T11:20:32.332Z,36.90
2023-08-15T11:23:35.350Z,36.90
2023-08-15T11:26:37.569Z,37.02
2023-08-15T11:29:40.768Z,36.90
2023-08-15T11:32:43.242Z,36.45
2023-08-15T11:35:48.596Z,36.35
2023-08-15T11:38:50.790Z,36.07
2023-08-15T11:41:53.588Z,36.62
2023-08-15T11:45:02.906Z,36.46
2023-08-15T11:48:05.592Z,36.51
2023-08-15T11:51:07.881Z,36.11
2023-08-15T11:54:10.118Z,35.94
2023-08-15T11:57:12.354Z,35.83
2023-08-15T12:00:19.476Z,36.01
2023-08-15T12:03:21.797Z,35.42
2023-08-15T12:06:24.011Z,35.67
2023-08-15T12:09:30.713Z,35.65
2023-08-15T12:12:40.757Z,35.30
2023-08-15T12:15:43.014Z,35.07
2023-08-15T12:18:46.327Z,34.16
2023-08-15T12:21:50.323Z,34.97
2023-08-15T12:24:52.593Z,34.88
2023-08-15T12:27:54.791Z,34.04
2023-08-15T12:30:57.136Z,34.36
2023-08-15T12:33:59.296Z,33.82
2023-08-15T12:37:01.537Z,34.35
2023-08-15T12:40:05.244Z,33.84
2023-08-15T12:43:11.087Z,34.31
2023-08-15T12:46:16.003Z,34.46
2023-08-15T12:49:18.486Z,33.62
2023-08-15T12:52:21.067Z,33.89
2023-08-15T12:55:23.752Z,33.89
2023-08-15T12:58:26.130Z,33.65
2023-08-15T13:01:28.997Z,34.27
2023-08-15T13:04:31.346Z,34.35
2023-08-15T13:07:34.577Z,34.79
2023-08-15T13:10:36.901Z,34.62
2023-08-15T13:13:40.191Z,34.60
2023-08-15T13:16:42.748Z,34.81
2023-08-15T13:19:44.956Z,34.97
2023-08-15T13:22:47.151Z,34.99
2023-08-15T13:25:49.396Z,35.16
2023-08-15T13:28:51.889Z,35.09
2023-08-15T13:31:54.362Z,35.11
2023-08-15T13:34:56.575Z,34.84
2023-08-15T13:37:59.276Z,34.88
2023-08-15T13:41:01.562Z,34.50
2023-08-15T13:44:04.265Z,34.13
2023-08-15T13:47:06.572Z,34.52
2023-08-15T13:50:09.900Z,33.71
2023-08-15T13:53:12.248Z,34.37
2023-08-15T13:56:17.339Z,33.63
2023-08-15T13:59:19.537Z,33.15
2023-08-15T14:02:21.798Z,33.42
2023-08-15T14:05:24.031Z,33.46
2023-08-15T14:08:26.464Z,32.82
2023-08-15T14:11:28.753Z,32.92
2023-08-15T14:14:30.910Z,33.43
2023-08-15T14:17:33.092Z,33.36
2023-08-15T14:20:36.397Z,33.06
2023-08-15T14:23:41.166Z,32.59
2023-08-15T14:26:43.397Z,32.54
2023-08-15T14:29:45.591Z,32.64
2023-08-15T14:32:48.090Z,32.39
2023-08-15T14:35:50.307Z,32.76
2023-08-15T14:38:52.894Z,32.67
2023-08-15T14:41:55.064Z,32.70
2023-08-15T14:44:57.305Z,32.42
2023-08-15T14:47:59.555Z,32.13
2023-08-15T14:51:01.891Z,31.75
2023-08-15T14:54:04.369Z,31.16
2023-08-15T14:57:06.576Z,31.93
2023-08-15T15:00:10.090Z,31.72
2023-08-15T15:03:12.688Z,31.87
2023-08-15T15:06:16.185Z,32.08
2023-08-15T15:09:18.698Z,32.08
2023-08-15T15:12:20.850Z,32.03
2023-08-15T15:15:31.570Z,31.70
2023-08-15T15:18:43.701Z,32.12
2023-08-15T15:21:46.000Z,32.21
2023-08-15T15:24:48.231Z,32.17
2023-08-15T15:27:50.430Z,32.17
2023-08-15T15:30:53.616Z,32.53
2023-08-15T15:33:55.883Z,32.39
2023-08-15T15:36:58.128Z,33.24
2023-08-15T15:40:01.681Z,33.58
2023-08-15T15:43:04.060Z,33.73
2023-08-15T15:46:06.294Z,33.61
2023-08-15T15:49:09.482Z,33.83
2023-08-15T15:52:12.252Z,33.61
2023-08-15T15:55:15.041Z,33.74
2023-08-15T15:58:17.297Z,33.97
2023-08-15T16:01:19.530Z,34.86
2023-08-15T16:04:24.451Z,34.94
2023-08-15T16:07:26.692Z,35.43
2023-08-15T16:10:29.738Z,35.43
2023-08-15T16:13:31.907Z,35.88
2023-08-15T16:16:34.098Z,35.70
2023-08-15T16:19:36.331Z,36.10
2023-08-15T16:22:38.536Z,35.81
2023-08-15T16:25:40.732Z,36.31
2023-08-15T16:28:44.855Z,36.71
2023-08-15T16:31:47.034Z,36.33
2023-08-15T16:34:49.224Z,36.42
2023-08-15T16:37:51.509Z,36.89
2023-08-15T16:40:53.652Z,36.55
2023-08-15T16:43:57.428Z,36.59
2023-08-15T16:46:59.703Z,36.73
2023-08-15T16:50:01.988Z,37.27
2023-08-15T16:53:04.888Z,36.98
2023-08-15T16:56:07.073Z,37.14
2023-08-15T16:59:09.270Z,36.97
2023-08-15T17:02:11.562Z,37.51
2023-08-15T17:05:13.788Z,37.71
2023-08-15T17:08:16.119Z,38.02
2023-08-15T17:11:18.772Z,39.19
2023-08-15T17:14:21.411Z,38.52
2023-08-15T17:17:23.932Z,42.84
2023-08-15T17:20:26.218Z,44.67
2023-08-15T17:23:28.378Z,44.98
2023-08-15T17:26:30.649Z,45.57
2023-08-15T17:29:33.131Z,44.02
2023-08-15T17:32:35.390Z,43.12
2023-08-15T17:35:37.585Z,41.76
2023-08-15T17:38:39.800Z,41.19
2023-08-15T17:41:44.814Z,40.88
2023-08-15T17:44:48.148Z,40.78
2023-08-15T17:47:50.320Z,40.47
2023-08-15T17:50:52.565Z,41.37
2023-08-15T17:53:54.800Z,41.72
2023-08-15T17:56:57.078Z,40.98
2023-08-15T17:59:59.316Z,40.40
2023-08-15T18:03:01.517Z,40.56
2023-08-15T18:06:03.739Z,40.11
2023-08-15T18:09:05.962Z,40.67
2023-08-15T18:12:08.356Z,40.55
2023-08-15T18:15:11.535Z,40.61
2023-08-15T18:18:13.804Z,40.44
2023-08-15T18:21:16.097Z,40.67
2023-08-15T18:24:18.501Z,40.62
2023-08-15T18:27:21.114Z,40.44
2023-08-15T18:30:23.371Z,40.14
2023-08-15T18:33:25.564Z,40.04
2023-08-15T18:36:27.821Z,40.81
2023-08-15T18:39:29.991Z,40.89
2023-08-15T18:42:32.320Z,40.96
2023-08-15T18:45:34.580Z,41.22
2023-08-15T18:48:37.420Z,41.25
2023-08-15T18:51:39.624Z,41.67
2023-08-15T18:54:41.820Z,41.25
2023-08-15T18:57:44.064Z,41.61
2023-08-15T19:00:46.280Z,41.35
2023-08-15T19:03:48.560Z,41.76
2023-08-15T19:06:51.185Z,42.02
2023-08-15T19:09:54.443Z,42.44
2023-08-15T19:12:56.603Z,42.66
2023-08-15T19:15:58.877Z,43.35
2023-08-15T19:19:05.046Z,43.20
2023-08-15T19:22:07.225Z,42.98
2023-08-15T19:25:09.895Z,43.77
2023-08-15T19:28:12.129Z,43.87
2023-08-15T19:31:14.463Z,44.19
2023-08-15T19:34:18.827Z,44.07
2023-08-15T19:37:36.116Z,44.52
2023-08-15T19:40:40.386Z,44.32
2023-08-15T19:43:42.622Z,44.64
2023-08-15T19:46:44.994Z,45.19
2023-08-15T19:49:47.221Z,44.87
2023-08-15T19:52:49.394Z,45.06
2023-08-15T19:55:51.692Z,45.00
2023-08-15T19:58:54.079Z,45.12
2023-08-15T20:01:56.324Z,45.13
2023-08-15T20:04:58.491Z,45.20
2023-08-15T20:08:00.865Z,45.42
2023-08-15T20:11:03.781Z,44.99
2023-08-15T20:14:05.996Z,45.36
2023-08-15T20:17:08.249Z,45.27
2023-08-15T20:20:11.131Z,45.39
2023-08-15T20:23:13.440Z,45.35
2023-08-15T20:26:15.630Z,45.33
2023-08-15T20:29:17.759Z,44.89
2023-08-15T20:32:20.046Z,44.22
2023-08-15T20:35:22.248Z,43.95
2023-08-15T20:38:24.528Z,43.77
2023-08-15T20:41:26.744Z,43.66
2023-08-15T20:44:28.954Z,43.84
2023-08-15T20:47:31.323Z,43.68
2023-08-15T20:50:33.529Z,43.92
2023-08-15T20:53:35.742Z,43.87
2023-08-15T20:56:37.962Z,43.52
2023-08-15T20:59:40.198Z,43.66
2023-08-15T21:02:42.468Z,43.58
2023-08-15T21:05:45.282Z,43.74
2023-08-15T21:08:47.582Z,43.56
2023-08-15T21:11:49.796Z,43.47
2023-08-15T21:14:52.086Z,43.52
2023-08-15T21:17:54.309Z,43.68
2023-08-15T21:20:56.600Z,43.69
2023-08-15T21:23:58.798Z,43.46
2023-08-15T21:27:00.977Z,43.56
2023-08-15T21:30:03.314Z,43.85
2023-08-15T21:33:05.567Z,43.46
2023-08-15T21:36:08.034Z,43.68
2023-08-15T21:39:10.299Z,43.62
2023-08-15T21:42:12.575Z,43.36
2023-08-15T21:45:15.474Z,43.85
2023-08-15T21:48:17.753Z,43.57
2023-08-15T21:51:19.937Z,44.05
2023-08-15T21:54:23.363Z,44.01
2023-08-15T21:57:25.727Z,44.13
2023-08-15T22:00:28.382Z,43.96
2023-08-15T22:03:30.789Z,44.41
2023-08-15T22:06:33.136Z,44.23
2023-08-15T22:09:35.379Z,44.27
2023-08-15T22:12:37.948Z,44.46
2023-08-15T22:15:40.407Z,44.43
2023-08-15T22:18:42.642Z,44.94
2023-08-15T22:21:47.065Z,45.03
2023-08-15T22:24:57.424Z,45.19
2023-08-15T22:28:07.077Z,45.05
2023-08-15T22:31:09.795Z,45.03
2023-08-15T22:34:14.891Z,45.17
2023-08-15T22:37:17.173Z,44.42
2023-08-15T22:40:20.095Z,44.89
2023-08-15T22:43:22.276Z,44.70
2023-08-15T22:46:24.467Z,44.64
2023-08-15T22:49:26.643Z,44.38
2023-08-15T22:52:28.850Z,44.16
2023-08-15T22:55:34.011Z,45.04
2023-08-15T22:58:36.259Z,45.43
2023-08-15T23:01:38.520Z,45.69
2023-08-15T23:04:40.834Z,45.79
2023-08-15T23:07:43.096Z,45.81
2023-08-15T23:10:52.614Z,46.27
2023-08-15T23:13:54.901Z,46.34
2023-08-15T23:16:57.067Z,46.56
2023-08-15T23:19:59.347Z,46.65
2023-08-15T23:23:01.579Z,46.89
2023-08-15T23:26:03.920Z,46.79
2023-08-15T23:29:06.161Z,46.80
2023-08-15T23:32:08.384Z,47.53
2023-08-15T23:35:14.598Z,47.87
2023-08-15T23:38:18.141Z,47.76
2023-08-15T23:41:20.384Z,47.90
2023-08-15T23:44:22.626Z,48.10
2023-08-15T23:47:25.989Z,48.58
2023-08-15T23:50:28.396Z,48.37
2023-08-15T23:53:30.599Z,48.18
2023-08-15T23:56:32.802Z,48.57
2023-08-15T23:59:35.128Z,48.81
